Time;durP1;ratioP1;P1;durP2;ratioP2;P2;SDS_P1;SDS_P2;PMS_P1;PMS_P2;Temp;Humidity;BMP_temperature;BMP_pressure;BME280_temperature;BME280_humidity;BME280_pressure;Samples;Min_cycle;Max_cycle;Signal;HPM_P1;HPM_P2
2022/04/13 00:01:48;;;;;;;13.32;9.68;;;;;;;10.30;44.56;99219.38;5085322;28;20040;-72
2022/04/13 00:04:18;;;;;;;14.13;10.15;;;;;;;10.50;44.86;99258.00;5067918;28;20063;-71
2022/04/13 00:06:48;;;;;;;12.35;9.23;;;;;;;10.50;45.15;99261.50;5085215;28;20242;-72
2022/04/13 00:09:21;;;;;;;15.52;9.77;;;;;;;10.45;45.60;99257.41;5085503;28;20040;-72
2022/04/13 00:11:50;;;;;;;15.63;10.43;;;;;;;10.45;44.72;99260.91;5085320;28;20036;-72
2022/04/13 00:14:22;;;;;;;16.20;9.95;;;;;;;10.21;44.67;99220.75;5085495;28;20367;-72
2022/04/13 00:16:51;;;;;;;13.98;9.18;;;;;;;9.46;45.06;99115.50;5085327;28;20072;-72
2022/04/13 00:19:21;;;;;;;16.33;9.30;;;;;;;10.42;45.18;99262.88;5085597;28;20082;-72
2022/04/13 00:21:50;;;;;;;13.15;8.05;;;;;;;8.20;45.89;98897.63;5068110;28;20063;-72
2022/04/13 00:24:23;;;;;;;13.63;8.98;;;;;;;10.40;45.51;99262.97;5085759;28;20181;-71
2022/04/13 00:26:51;;;;;;;11.38;8.20;;;;;;;10.33;45.42;99260.72;5085161;28;20114;-72
2022/04/13 00:29:21;;;;;;;13.23;8.82;;;;;;;10.32;45.20;99266.97;5085618;28;20043;-72
2022/04/13 00:31:52;;;;;;;14.02;10.55;;;;;;;10.33;45.28;99258.94;5067883;28;20048;-72
2022/04/13 00:34:22;;;;;;;11.90;8.10;;;;;;;10.24;45.49;99267.41;5068109;28;20050;-72
2022/04/13 00:36:56;;;;;;;12.02;9.00;;;;;;;10.22;45.77;99270.13;5085464;28;20158;-72
2022/04/13 00:39:30;;;;;;;13.77;10.13;;;;;;;10.13;46.28;99267.13;5085500;28;20075;-71
2022/04/13 00:42:05;;;;;;;12.23;8.60;;;;;;;10.14;46.07;99268.84;5085355;28;20040;-72
2022/04/13 00:44:37;;;;;;;;;;;;;;;10.03;47.68;99272.06;5085602;28;20037;-71
2022/04/13 00:47:13;;;;;;;13.13;8.40;;;;;;;9.99;46.68;99265.22;5085234;28;19920;-71
2022/04/13 00:49:45;;;;;;;13.32;9.10;;;;;;;9.93;46.89;99268.22;5085142;28;20040;-72
2022/04/13 00:52:21;;;;;;;14.50;9.55;;;;;;;9.91;46.78;99270.09;5067288;28;20040;-72
2022/04/13 00:54:57;;;;;;;13.40;8.35;;;;;;;9.86;47.24;99270.34;5084740;28;20086;-71
2022/04/13 00:57:33;;;;;;;15.77;10.20;;;;;;;9.84;47.28;99264.25;5084852;28;20044;-71
2022/04/13 01:00:09;;;;;;;12.98;8.63;;;;;;;8.40;46.60;99063.78;5084768;28;20045;-72
2022/04/13 01:02:44;;;;;;;14.88;8.43;;;;;;;9.92;46.34;99269.16;5085283;28;20045;-73
2022/04/13 01:05:21;;;;;;;13.43;9.30;;;;;;;9.84;47.77;99338.38;5085072;28;20048;-72
2022/04/13 01:07:54;;;;;;;13.10;9.07;;;;;;;9.81;47.60;99266.22;5084552;28;20401;-73
2022/04/13 01:10:29;;;;;;;13.48;9.40;;;;;;;9.72;47.79;99256.97;5084817;28;20036;-73
2022/04/13 01:13:01;;;;;;;11.93;8.18;;;;;;;9.67;46.78;99261.66;5084929;28;20040;-72
2022/04/13 01:15:34;;;;;;;12.00;9.25;;;;;;;9.66;46.97;99256.44;5087472;28;20045;-72
2022/04/13 01:18:07;;;;;;;13.80;8.73;;;;;;;9.67;47.10;99274.03;5088343;28;20048;-72
2022/04/13 01:20:51;;;;;;;13.27;9.27;;;;;;;9.44;48.48;99222.34;5088551;28;20178;-72
2022/04/13 01:23:25;;;;;;;13.90;9.90;;;;;;;9.68;47.18;99257.22;5088503;28;20044;-72
2022/04/13 01:25:57;;;;;;;12.63;8.40;;;;;;;9.65;47.03;99258.25;5088294;28;20292;-73
2022/04/13 01:28:29;;;;;;;10.85;8.07;;;;;;;9.62;46.79;99255.75;5088234;28;20048;-72
2022/04/13 01:31:02;;;;;;;11.55;7.32;;;;;;;9.65;47.24;99255.59;5088444;28;20086;-72
2022/04/13 01:33:35;;;;;;;13.38;8.15;;;;;;;8.83;47.91;99138.22;5088200;28;20239;-72
2022/04/13 01:36:08;;;;;;;13.18;8.98;;;;;;;9.63;47.27;99268.06;5088380;28;20040;-72
2022/04/13 01:38:41;;;;;;;12.23;8.32;;;;;;;9.60;47.10;99260.28;5088209;28;20090;-73
2022/04/13 01:41:14;;;;;;;14.38;9.27;;;;;;;9.60;46.95;99276.16;5087950;28;20040;-73
2022/04/13 01:43:46;;;;;;;13.95;8.68;;;;;;;9.59;47.70;99274.44;5088187;28;20037;-73
2022/04/13 01:46:18;;;;;;;13.18;8.73;;;;;;;9.48;48.06;99271.50;5087809;28;20040;-73
2022/04/13 01:48:50;;;;;;;16.00;9.55;;;;;;;9.50;47.35;99280.22;5088105;28;20289;-74
2022/04/13 01:51:23;;;;;;;13.80;8.90;;;;;;;9.44;48.07;99273.44;5087626;28;20036;-73
2022/04/13 01:53:56;;;;;;;14.18;8.98;;;;;;;9.34;48.85;99269.53;5087825;28;20042;-73
2022/04/13 01:56:29;;;;;;;13.02;9.23;;;;;;;9.38;47.38;99272.88;5070622;28;20048;-72
2022/04/13 01:59:01;;;;;;;13.38;9.77;;;;;;;9.32;47.86;99269.63;5087634;28;20246;-73
2022/04/13 02:01:35;;;;;;;15.38;9.75;;;;;;;9.38;47.89;99275.53;5087876;28;20290;-72
2022/04/13 02:04:16;;;;;;;13.70;8.27;;;;;;;9.37;49.14;99273.81;5087481;28;20083;-73
2022/04/13 02:06:49;;;;;;;12.27;7.95;;;;;;;9.28;48.43;99272.50;5087543;28;20044;-73
2022/04/13 02:09:20;;;;;;;11.23;8.10;;;;;;;9.22;48.40;99278.94;5087713;28;20346;-73
2022/04/13 02:11:49;;;;;;;14.55;10.43;;;;;;;9.19;48.79;99281.72;5087290;28;20310;-73
2022/04/13 02:14:19;;;;;;;15.52;9.60;;;;;;;8.89;48.95;99246.25;5086734;28;20208;-72
2022/04/13 02:16:49;;;;;;;12.88;9.27;;;;;;;9.04;49.28;99284.28;5087379;28;20045;-73
2022/04/13 02:19:19;;;;;;;13.50;8.60;;;;;;;9.03;49.10;99278.13;5086991;28;20304;-73
2022/04/13 02:21:49;;;;;;;14.18;9.35;;;;;;;9.04;48.60;99282.50;5086560;28;20057;-73
2022/04/13 02:24:20;;;;;;;12.20;9.13;;;;;;;8.86;48.18;99238.47;5086921;28;20047;-73
2022/04/13 02:26:49;;;;;;;13.10;9.30;;;;;;;9.14;48.29;99280.25;5086826;28;20249;-73
2022/04/13 02:29:19;;;;;;;12.98;8.57;;;;;;;8.81;48.75;99238.72;5070320;28;20119;-73
2022/04/13 02:31:49;;;;;;;14.65;9.65;;;;;;;9.08;48.41;99281.41;5086774;28;20082;-73
2022/04/13 02:34:20;;;;;;;12.23;8.73;;;;;;;9.07;48.64;99284.13;5086715;28;20041;-73
2022/04/13 02:36:50;;;;;;;14.52;9.43;;;;;;;9.09;48.49;99279.63;5069347;28;20036;-73
2022/04/13 02:39:21;;;;;;;14.68;8.75;;;;;;;9.05;49.08;99286.84;5087017;28;20074;-73
2022/04/13 02:41:50;;;;;;;13.25;8.52;;;;;;;9.06;48.41;99283.28;5086759;28;20105;-73
2022/04/13 02:44:21;;;;;;;11.70;7.18;;;;;;;9.02;48.39;99278.22;5086959;28;20082;-74
2022/04/13 02:46:50;;;;;;;14.38;9.38;;;;;;;9.05;48.80;99281.56;5086511;28;20338;-73
2022/04/13 02:49:20;;;;;;;12.88;8.23;;;;;;;8.99;48.85;99284.50;5086593;28;20210;-73
2022/04/13 02:51:50;;;;;;;12.13;9.25;;;;;;;8.91;48.25;99284.03;5086787;28;20052;-73
2022/04/13 02:54:22;;;;;;;10.52;6.97;;;;;;;8.62;48.62;99238.75;5069683;28;20280;-73
2022/04/13 02:56:51;;;;;;;12.15;9.50;;;;;;;8.92;48.35;99291.88;5086629;28;20211;-73
2022/04/13 02:59:21;;;;;;;11.95;7.90;;;;;;;8.70;48.29;99254.22;5086244;28;20067;-73
2022/04/13 03:01:53;;;;;;;13.57;9.00;;;;;;;8.93;48.33;99296.25;5086727;28;20033;-73
2022/04/13 03:04:21;;;;;;;12.45;8.25;;;;;;;8.92;48.30;99301.59;5086661;28;20051;-73
2022/04/13 03:06:53;;;;;;;11.65;8.55;;;;;;;8.88;48.52;99295.63;5068621;28;20048;-74
2022/04/13 03:09:24;;;;;;;13.13;9.05;;;;;;;8.79;49.12;99298.69;5086443;28;20048;-73
2022/04/13 03:11:53;;;;;;;12.85;8.63;;;;;;;8.74;49.29;99302.50;5086320;28;20086;-72
2022/04/13 03:14:23;;;;;;;11.70;7.70;;;;;;;8.70;49.28;99303.56;5086265;28;20042;-71
2022/04/13 03:16:53;;;;;;;11.82;7.97;;;;;;;8.62;49.58;99311.88;5086242;28;20044;-71
2022/04/13 03:19:23;;;;;;;11.90;7.25;;;;;;;8.64;49.33;99304.72;5069082;28;20078;-74
2022/04/13 03:21:54;;;;;;;11.45;7.45;;;;;;;8.64;49.19;99299.44;5086004;28;20043;-74
2022/04/13 03:24:25;;;;;;;11.10;7.95;;;;;;;8.52;49.94;99307.97;5086312;28;20288;-73
2022/04/13 03:26:53;;;;;;;12.85;8.43;;;;;;;8.19;49.74;99258.44;5085943;28;20246;-73
2022/04/13 03:29:23;;;;;;;12.05;8.73;;;;;;;8.47;50.03;99316.09;5086059;28;20040;-73
2022/04/13 03:31:54;;;;;;;13.32;8.55;;;;;;;8.53;49.02;99315.81;5086068;28;20052;-72
2022/04/13 03:34:24;;;;;;;10.88;7.57;;;;;;;8.16;49.97;99266.50;5068566;28;20036;-74
2022/04/13 03:36:54;;;;;;;11.00;7.38;;;;;;;8.38;49.71;99315.66;5085709;28;20047;-73
2022/04/13 03:39:26;;;;;;;10.77;7.93;;;;;;;8.41;50.06;99313.75;5068060;28;20048;-72
2022/04/13 03:41:54;;;;;;;13.32;8.40;;;;;;;8.34;49.45;99318.47;5068408;28;20136;-73
2022/04/13 03:44:26;;;;;;;12.05;8.02;;;;;;;8.34;50.17;99313.19;5068120;28;20067;-73
2022/04/13 03:46:54;;;;;;;12.07;7.50;;;;;;;8.29;49.81;99317.81;5085795;28;20064;-73
2022/04/13 03:49:25;;;;;;;9.95;7.60;;;;;;;8.29;50.01;99319.59;5085968;28;20313;-73
2022/04/13 03:51:55;;;;;;;10.57;8.05;;;;;;;8.33;49.24;99545.63;5068948;28;20036;-73
2022/04/13 03:54:26;;;;;;;11.75;7.53;;;;;;;8.33;49.39;99329.94;5085631;28;20219;-73
2022/04/13 03:56:55;;;;;;;10.35;7.15;;;;;;;7.49;50.38;99213.34;5085783;28;20285;-73
2022/04/13 03:59:26;;;;;;;12.98;7.75;;;;;;;8.15;50.68;99328.16;5085671;28;20038;-72
2022/04/13 04:01:55;;;;;;;10.90;7.72;;;;;;;8.11;50.37;99323.94;5085705;28;20254;-73
2022/04/13 04:04:25;;;;;;;10.57;6.60;;;;;;;8.15;50.24;99327.31;5085578;28;20327;-73
2022/04/13 04:06:56;;;;;;;10.77;7.43;;;;;;;8.18;49.72;99329.81;5067943;28;20083;-73
2022/04/13 04:09:27;;;;;;;11.63;7.10;;;;;;;8.11;50.30;99337.13;5085494;28;20068;-73
2022/04/13 04:11:56;;;;;;;13.25;8.32;;;;;;;8.10;49.82;99343.34;5085318;28;20222;-73
2022/04/13 04:14:26;;;;;;;10.90;7.10;;;;;;;7.79;49.92;99293.72;5085692;28;20078;-73
2022/04/13 04:16:56;;;;;;;12.23;8.38;;;;;;;8.06;50.08;99335.63;5085366;28;20102;-73
2022/04/13 04:19:26;;;;;;;11.73;7.53;;;;;;;8.09;49.55;99336.34;5085178;28;20173;-73
2022/04/13 04:21:56;;;;;;;10.13;8.10;;;;;;;8.10;49.88;99340.72;5085535;28;20036;-73
2022/04/13 04:24:28;;;;;;;10.77;6.97;;;;;;;7.26;49.43;99196.72;5085213;28;20036;-73
2022/04/13 04:26:57;;;;;;;10.85;7.18;;;;;;;8.13;49.31;99343.22;5085321;28;20228;-73
2022/04/13 04:29:27;;;;;;;17.15;6.65;;;;;;;8.09;49.83;99346.91;5085221;28;20045;-73
2022/04/13 04:31:59;;;;;;;12.00;7.88;;;;;;;8.06;50.01;99346.19;5068041;28;20040;-72
2022/04/13 04:34:28;;;;;;;10.38;7.45;;;;;;;8.01;50.20;99357.81;5085395;28;20048;-73
2022/04/13 04:36:58;;;;;;;10.88;7.28;;;;;;;7.57;50.57;99296.47;5085321;28;20358;-73
2022/04/13 04:39:30;;;;;;;13.07;7.45;;;;;;;7.92;50.17;99354.72;5084835;28;20045;-73
2022/04/13 04:41:59;;;;;;;13.88;7.20;;;;;;;7.93;50.51;99356.44;5085060;28;20089;-73
2022/04/13 04:44:29;;;;;;;12.82;7.57;;;;;;;7.90;50.06;99367.13;5085461;28;20051;-73
2022/04/13 04:46:59;;;;;;;11.52;7.20;;;;;;;7.87;50.50;99364.63;5085311;28;20090;-73
2022/04/13 04:49:30;;;;;;;11.00;7.93;;;;;;;7.81;50.36;99365.75;5085827;28;20055;-73
2022/04/13 04:52:00;;;;;;;13.18;7.95;;;;;;;7.76;50.85;99370.38;5089136;28;20055;-72
2022/04/13 04:54:32;;;;;;;11.70;6.53;;;;;;;7.80;50.75;99379.00;5088959;28;20200;-73
2022/04/13 04:57:00;;;;;;;10.88;7.20;;;;;;;7.66;50.37;99353.22;5088834;28;20056;-73
2022/04/13 04:59:30;;;;;;;8.93;5.82;;;;;;;7.84;50.06;99376.19;5088473;28;20041;-73
2022/04/13 05:02:00;;;;;;;12.48;7.43;;;;;;;7.88;50.36;99377.75;5071340;28;20045;-73
2022/04/13 05:04:31;;;;;;;9.40;6.22;;;;;;;7.88;50.03;99385.66;5088653;28;20036;-73
2022/04/13 05:07:01;;;;;;;8.88;5.47;;;;;;;7.95;49.63;99378.34;5088538;28;20052;-73
2022/04/13 05:09:32;;;;;;;9.75;7.00;;;;;;;7.67;49.94;99341.75;5088344;28;20051;-73
2022/04/13 05:12:01;;;;;;;14.68;8.75;;;;;;;7.93;50.08;99385.47;5088832;28;20049;-73
2022/04/13 05:14:31;;;;;;;14.57;9.45;;;;;;;7.94;49.47;99387.19;5071193;28;20048;-72
2022/04/13 05:17:01;;;;;;;11.88;7.75;;;;;;;7.92;49.70;99389.03;5090020;28;20086;-73
2022/04/13 05:19:33;;;;;;;13.63;8.88;;;;;;;7.98;49.50;99384.34;5089173;28;20036;-73
2022/04/13 05:22:02;;;;;;;15.55;7.55;;;;;;;7.72;49.71;99345.06;5088836;28;20037;-73
2022/04/13 05:24:34;;;;;;;12.43;8.10;;;;;;;8.01;49.64;99392.13;5089463;28;20047;-73
2022/04/13 05:27:03;;;;;;;8.85;7.00;;;;;;;8.09;49.34;99398.84;5071323;28;20099;-72
2022/04/13 05:29:33;;;;;;;11.80;7.30;;;;;;;8.13;48.99;99389.88;5070658;28;20056;-73
2022/04/13 05:32:03;;;;;;;12.48;7.07;;;;;;;7.04;49.27;99217.03;5087727;28;20040;-73
2022/04/13 05:34:33;;;;;;;10.80;7.38;;;;;;;7.52;49.43;99306.34;5088106;28;20041;-73
2022/04/13 05:37:03;;;;;;;12.98;7.13;;;;;;;8.14;49.38;99405.63;5087909;28;20036;-73
2022/04/13 05:39:38;;;;;;;10.82;6.40;;;;;;;8.20;49.40;99402.72;5088311;28;20039;-73
2022/04/13 05:42:08;;;;;;;8.90;6.80;;;;;;;8.14;49.12;99399.50;5087958;28;20043;-73
2022/04/13 05:44:38;;;;;;;9.48;6.60;;;;;;;8.21;49.12;99408.88;5088055;28;20086;-73
2022/04/13 05:47:09;;;;;;;8.93;6.07;;;;;;;8.23;49.12;99420.22;5088681;28;20078;-73
2022/04/13 05:49:39;;;;;;;10.05;7.10;;;;;;;8.24;49.14;99401.66;5087932;28;20033;-73
2022/04/13 05:52:09;;;;;;;12.00;8.70;;;;;;;8.28;48.82;99413.78;5087804;28;20029;-73
2022/04/13 05:54:41;;;;;;;9.23;6.57;;;;;;;8.31;48.81;99407.53;5069893;28;20044;-73
2022/04/13 05:57:09;;;;;;;12.70;7.72;;;;;;;8.15;48.75;99373.03;5087339;28;20052;-72
2022/04/13 05:59:39;;;;;;;10.63;7.18;;;;;;;8.47;48.40;99412.97;5069798;28;20045;-72
2022/04/13 06:02:09;;;;;;;12.43;7.35;;;;;;;8.58;48.36;99415.97;5087512;28;20346;-72
2022/04/13 06:04:39;;;;;;;10.30;7.88;;;;;;;8.66;48.22;99421.75;5087356;28;20048;-72
2022/04/13 06:07:09;;;;;;;12.40;7.15;;;;;;;8.71;48.12;99416.25;5087346;28;20305;-73
2022/04/13 06:09:41;;;;;;;13.10;8.23;;;;;;;7.63;47.78;99245.22;5087168;28;20300;-72
2022/04/13 06:12:11;;;;;;;9.05;6.20;;;;;;;8.97;47.46;99419.41;5070164;28;20036;-73
2022/04/13 06:14:41;;;;;;;8.48;5.90;;;;;;;11.11;43.48;99403.88;5087260;28;20307;-73
2022/04/13 06:17:10;;;;;;;10.65;7.05;;;;;;;15.19;35.99;99388.94;5087080;28;20330;-72
2022/04/13 06:19:40;;;;;;;10.40;6.97;;;;;;;16.72;33.19;99372.72;5086841;28;20288;-73
2022/04/13 06:22:10;;;;;;;11.52;7.00;;;;;;;17.62;32.07;99372.41;5087372;28;20028;-72
2022/04/13 06:24:42;;;;;;;9.10;6.28;;;;;;;19.38;29.70;99356.97;5087356;28;20055;-73
2022/04/13 06:27:10;;;;;;;14.63;8.48;;;;;;;18.42;30.64;99360.22;5087450;28;20033;-72
2022/04/13 06:29:40;;;;;;;9.65;6.65;;;;;;;19.73;29.22;99359.97;5086965;28;20087;-73
2022/04/13 06:32:12;;;;;;;11.30;6.40;;;;;;;19.39;28.74;99367.63;5069855;28;20040;-73
2022/04/13 06:34:41;;;;;;;9.98;6.50;;;;;;;19.93;29.37;99355.47;5087122;28;20048;-73
2022/04/13 06:37:11;;;;;;;9.27;6.60;;;;;;;20.19;28.01;99350.31;5069646;28;20040;-74
2022/04/13 06:39:42;;;;;;;11.68;6.93;;;;;;;20.76;27.95;99316.94;5086708;28;20047;-73
2022/04/13 06:42:11;;;;;;;9.55;6.60;;;;;;;21.71;26.98;99346.09;5086903;28;20047;-73
2022/04/13 06:44:41;;;;;;;11.35;7.65;;;;;;;22.24;27.34;99347.00;5086938;28;20043;-73
2022/04/13 06:47:11;;;;;;;11.52;6.38;;;;;;;22.87;26.89;99352.97;5069412;28;20066;-73
2022/04/13 06:49:42;;;;;;;7.72;6.15;;;;;;;21.96;26.96;99357.94;5086646;28;20045;-73
2022/04/13 06:52:13;;;;;;;13.13;7.55;;;;;;;20.95;27.62;99360.94;5086533;28;20041;-73
2022/04/13 06:54:43;;;;;;;40.15;7.80;;;;;;;20.48;28.87;99390.63;5086782;28;20040;-73
2022/04/13 06:57:12;;;;;;;9.55;6.85;;;;;;;19.10;30.41;99370.22;5052854;28;20040;-73
2022/04/13 06:59:42;;;;;;;10.45;6.30;;;;;;;17.81;33.06;99370.88;5069143;28;20045;-73
2022/04/13 07:02:12;;;;;;;12.10;5.97;;;;;;;15.92;35.34;99348.69;5086481;28;20177;-73
2022/04/13 07:04:42;;;;;;;11.05;7.28;;;;;;;15.11;37.01;99391.31;5086485;28;20289;-73
2022/04/13 07:07:14;;;;;;;9.90;6.80;;;;;;;14.78;37.73;99375.94;5086061;28;20057;-73
2022/04/13 07:09:44;;;;;;;12.30;7.10;;;;;;;14.39;37.93;99391.94;5086364;28;20328;-73
2022/04/13 07:12:15;;;;;;;9.90;6.93;;;;;;;14.04;38.19;99353.56;5085343;28;20044;-73
2022/04/13 07:14:43;;;;;;;10.40;7.00;;;;;;;14.07;39.48;99388.84;5085604;28;20190;-73
2022/04/13 07:17:13;;;;;;;11.38;7.57;;;;;;;13.38;39.54;99311.91;5085995;28;20041;-73
2022/04/13 07:19:43;;;;;;;10.88;6.85;;;;;;;13.94;39.73;99398.63;5085926;28;20333;-73
2022/04/13 07:22:13;;;;;;;12.82;7.65;;;;;;;13.86;39.54;99395.63;5086116;28;20196;-73
2022/04/13 07:24:44;;;;;;;12.43;7.88;;;;;;;13.73;39.26;99406.25;5086188;28;20307;-73
2022/04/13 07:27:13;;;;;;;9.20;7.07;;;;;;;13.84;39.89;99396.69;5085781;28;20032;-73
2022/04/13 07:29:43;;;;;;;8.57;6.68;;;;;;;13.83;39.30;99400.31;5085801;28;20047;-73
2022/04/13 07:32:13;;;;;;;10.88;6.88;;;;;;;12.45;39.65;99161.19;5085722;28;20212;-73
2022/04/13 07:34:46;;;;;;;9.23;7.25;;;;;;;13.83;39.93;99387.00;5085886;28;20040;-73
2022/04/13 07:37:14;;;;;;;10.10;7.63;;;;;;;13.80;39.47;99388.91;5085477;28;20354;-73
2022/04/13 07:39:45;;;;;;;8.65;7.15;;;;;;;13.60;39.20;99360.09;5085834;28;20041;-73
2022/04/13 07:42:21;;;;;;;10.35;7.80;;;;;;;13.88;38.73;99403.53;5085793;28;20040;-73
2022/04/13 07:44:54;;;;;;;10.88;6.97;;;;;;;13.97;39.36;99401.09;5085594;28;20315;-73
2022/04/13 07:47:26;;;;;;;9.65;6.90;;;;;;;13.97;38.81;99406.41;5085728;28;20041;-73
2022/04/13 07:49:59;;;;;;;12.80;6.60;;;;;;;13.90;38.96;99414.94;5085788;28;20051;-73
2022/04/13 07:52:34;;;;;;;12.68;6.82;;;;;;;13.76;39.21;99407.88;5085789;28;20040;-73
2022/04/13 07:55:10;;;;;;;9.93;6.53;;;;;;;13.87;39.12;99431.13;5085681;28;20055;-73
2022/04/13 07:57:43;;;;;;;9.02;5.78;;;;;;;13.98;38.92;99413.44;5085409;28;20200;-73
2022/04/13 08:00:16;;;;;;;10.55;7.10;;;;;;;13.97;38.94;99416.22;5068012;28;20044;-73
2022/04/13 08:02:48;;;;;;;9.15;6.68;;;;;;;13.72;39.17;99428.53;5085453;28;20040;-73
2022/04/13 08:05:22;;;;;;;11.35;7.05;;;;;;;13.78;39.41;99424.59;5085286;28;20253;-73
2022/04/13 08:07:55;;;;;;;9.32;6.95;;;;;;;14.03;39.28;99421.13;5085268;28;20048;-73
2022/04/13 08:10:28;;;;;;;16.55;7.57;;;;;;;13.99;39.04;99424.97;5085450;28;20044;-73
2022/04/13 08:13:01;;;;;;;10.90;6.22;;;;;;;13.99;39.21;99422.28;5085525;28;20181;-73
2022/04/13 08:15:34;;;;;;;11.00;6.43;;;;;;;13.78;39.10;99440.59;5085580;28;20040;-73
2022/04/13 08:18:07;;;;;;;14.70;7.65;;;;;;;13.79;39.54;99421.84;5085190;28;20243;-73
2022/04/13 08:20:39;;;;;;;10.90;6.53;;;;;;;13.91;39.11;99432.63;5085131;28;20047;-73
2022/04/13 08:23:12;;;;;;;11.32;6.53;;;;;;;14.00;39.33;99446.16;5085642;28;20041;-73
2022/04/13 08:25:47;;;;;;;11.52;7.05;;;;;;;13.95;39.28;99420.78;5072013;28;20047;-73
2022/04/13 08:28:19;;;;;;;10.18;7.00;;;;;;;13.99;39.16;99419.63;5089295;28;20048;-73
2022/04/13 08:30:52;;;;;;;11.25;6.72;;;;;;;13.89;38.90;99379.44;5089242;28;20296;-73
2022/04/13 08:33:25;;;;;;;12.02;6.78;;;;;;;14.39;38.71;99418.59;5089223;28;20078;-72
2022/04/13 08:36:00;;;;;;;11.07;7.05;;;;;;;14.61;38.23;99419.81;5089226;28;20040;-72
2022/04/13 08:38:32;;;;;;;10.68;6.97;;;;;;;14.49;38.02;99384.13;5088747;28;20041;-74
2022/04/13 08:41:17;;;;;;;10.15;6.25;;;;;;;14.79;38.16;99415.84;5089170;28;20102;-74
2022/04/13 08:43:54;;;;;;;15.38;6.28;;;;;;;14.89;37.63;99418.69;5089096;28;20047;-73
2022/04/13 08:46:29;;;;;;;8.85;6.45;;;;;;;14.44;37.84;99336.47;5089372;28;20036;-73
2022/04/13 08:49:05;;;;;;;10.23;6.55;;;;;;;14.10;37.31;99266.03;5089008;28;20037;-74
2022/04/13 08:51:39;;;;;;;10.13;6.05;;;;;;;15.23;37.60;99425.13;5089206;28;20296;-74
2022/04/13 08:54:20;;;;;;;10.00;6.45;;;;;;;15.22;37.14;99418.91;5089141;28;20040;-74
2022/04/13 08:56:56;;;;;;;8.95;5.47;;;;;;;15.26;37.18;99430.22;5088870;28;20052;-74
2022/04/13 08:59:39;;;;;;;9.32;5.45;;;;;;;15.36;36.87;99429.44;5055071;28;20040;-74
2022/04/13 09:02:23;;;;;;;11.30;5.53;;;;;;;15.53;36.96;99414.84;5088505;28;20044;-74
2022/04/13 09:05:00;;;;;;;10.32;6.82;;;;;;;15.55;36.73;99401.38;5072166;28;20040;-74
2022/04/13 09:07:33;;;;;;;7.68;5.00;;;;;;;15.84;36.66;99417.91;5088183;28;20063;-74
2022/04/13 09:10:11;;;;;;;9.88;6.80;;;;;;;15.99;36.47;99416.75;5088465;28;20037;-74
2022/04/13 09:12:47;;;;;;;10.32;6.10;;;;;;;16.10;35.91;99411.41;5088144;28;20297;-74
2022/04/13 09:15:20;;;;;;;12.38;6.72;;;;;;;16.17;36.55;99412.66;5088344;28;20052;-74
2022/04/13 09:17:52;;;;;;;10.90;6.28;;;;;;;16.03;35.85;99405.69;5088373;28;20040;-74
2022/04/13 09:20:25;;;;;;;10.60;5.93;;;;;;;16.12;36.30;99405.97;5088792;28;20041;-73
2022/04/13 09:23:00;;;;;;;10.50;5.72;;;;;;;16.11;35.64;99420.28;5089207;28;20186;-73
2022/04/13 09:25:34;;;;;;;9.55;6.45;;;;;;;16.00;36.23;99399.72;5072261;28;20196;-73
2022/04/13 09:28:08;;;;;;;11.52;6.53;;;;;;;15.44;36.25;99278.47;5071660;28;20119;-73
2022/04/13 09:30:41;;;;;;;8.75;5.65;;;;;;;16.36;36.18;99410.25;5089423;28;20301;-73
2022/04/13 09:33:13;;;;;;;11.05;6.35;;;;;;;16.46;35.74;99399.69;5088200;28;20325;-74
2022/04/13 09:35:46;;;;;;;9.60;5.82;;;;;;;16.30;35.45;99402.72;5087177;28;20040;-74
2022/04/13 09:38:21;;;;;;;14.43;6.57;;;;;;;16.22;35.52;99414.97;5087765;28;20051;-74
2022/04/13 09:40:53;;;;;;;8.15;5.93;;;;;;;16.14;35.72;99396.00;5087540;28;20288;-74
2022/04/13 09:43:27;;;;;;;12.40;6.80;;;;;;;16.27;35.96;99394.06;5087683;28;20047;-74
2022/04/13 09:46:00;;;;;;;9.77;6.03;;;;;;;16.45;35.92;99389.09;5087674;28;20037;-74
2022/04/13 09:48:34;;;;;;;10.63;6.47;;;;;;;16.70;35.64;99388.91;5087653;28;20205;-74
2022/04/13 09:51:08;;;;;;;9.23;6.45;;;;;;;16.85;35.10;99392.16;5087609;28;20041;-74
2022/04/13 09:53:43;;;;;;;10.25;7.28;;;;;;;16.83;35.00;99394.13;5087796;28;20047;-74
2022/04/13 09:56:18;;;;;;;13.57;6.15;;;;;;;16.97;34.68;99381.31;5087834;28;20037;-74
2022/04/13 09:58:52;;;;;;;13.02;5.97;;;;;;;17.02;34.51;99393.47;5087746;28;20040;-74
2022/04/13 10:01:24;;;;;;;12.57;6.78;;;;;;;17.00;35.02;99386.44;5087242;28;20041;-74
2022/04/13 10:03:57;;;;;;;9.40;5.40;;;;;;;17.12;34.74;99406.00;5087568;28;20051;-74
2022/04/13 10:06:30;;;;;;;9.98;5.95;;;;;;;17.09;35.09;99384.81;5087309;28;20321;-74
2022/04/13 10:09:08;;;;;;;11.40;6.47;;;;;;;17.04;34.29;99399.56;5087200;28;20041;-74
2022/04/13 10:11:58;;;;;;;9.48;6.15;;;;;;;17.01;34.58;99400.66;5087177;28;20051;-74
2022/04/13 10:14:32;;;;;;;10.15;5.90;;;;;;;16.45;34.71;99274.09;5069930;28;20063;-74
2022/04/13 10:17:08;;;;;;;14.75;7.65;;;;;;;17.00;33.88;99397.13;5087395;28;20103;-74
2022/04/13 10:19:40;;;;;;;14.95;7.15;;;;;;;16.79;34.45;99353.38;5086935;28;20082;-74
2022/04/13 10:22:10;;;;;;;9.32;5.90;;;;;;;17.01;34.37;99392.63;5086922;28;20040;-74
2022/04/13 10:24:42;;;;;;;9.20;6.18;;;;;;;17.01;34.69;99389.97;5069468;28;20048;-74
2022/04/13 10:27:12;;;;;;;9.60;6.15;;;;;;;17.05;34.70;99358.44;5069312;28;20362;-74
2022/04/13 10:29:44;;;;;;;9.18;5.80;;;;;;;17.31;34.57;99373.25;5086547;28;20247;-74
2022/04/13 10:32:16;;;;;;;9.90;5.97;;;;;;;17.05;34.32;99284.31;5086954;28;20044;-74
2022/04/13 10:34:46;;;;;;;9.77;4.82;;;;;;;17.61;33.95;99380.59;5087182;28;20033;-74
2022/04/13 10:37:16;;;;;;;10.00;6.05;;;;;;;17.53;34.12;99362.44;5069370;28;20044;-74
2022/04/13 10:39:46;;;;;;;8.98;5.75;;;;;;;17.53;34.21;99353.56;5087151;28;20024;-74
2022/04/13 10:42:19;;;;;;;11.20;6.57;;;;;;;17.59;33.97;99355.72;5069354;28;20044;-74
2022/04/13 10:45:00;;;;;;;13.85;6.43;;;;;;;17.58;33.63;99387.03;5086502;28;20044;-73
2022/04/13 10:47:41;;;;;;;10.43;6.82;;;;;;;17.45;34.05;99353.34;5086360;28;20044;-74
2022/04/13 10:50:14;;;;;;;11.02;6.18;;;;;;;17.57;33.90;99349.63;5086357;28;20086;-74
2022/04/13 10:52:55;;;;;;;7.68;5.45;;;;;;;17.68;33.82;99343.41;5086378;28;20098;-74
2022/04/13 10:55:30;;;;;;;9.88;5.65;;;;;;;17.81;33.90;99346.75;5069036;28;20090;-74
2022/04/13 10:58:12;;;;;;;11.27;7.20;;;;;;;17.91;33.22;99350.34;5069137;28;20044;-74
2022/04/13 11:00:49;;;;;;;8.80;5.65;;;;;;;17.91;33.53;99353.03;5086597;28;20285;-74
2022/04/13 11:03:25;;;;;;;9.38;6.05;;;;;;;18.03;33.25;99348.44;5068945;28;20063;-74
2022/04/13 11:05:58;;;;;;;8.85;5.68;;;;;;;18.07;33.28;99348.03;5086124;28;20045;-74
2022/04/13 11:08:38;;;;;;;9.55;5.75;;;;;;;18.13;33.17;99349.34;5085971;28;20048;-74
2022/04/13 11:11:17;;;;;;;10.65;6.95;;;;;;;17.97;33.16;99306.91;5085919;28;20090;-71
2022/04/13 11:13:51;;;;;;;10.23;6.55;;;;;;;18.04;33.19;99310.75;5085767;28;20044;-69
2022/04/13 11:16:27;;;;;;;9.70;6.18;;;;;;;18.28;32.84;99345.31;5085963;28;20040;-69
2022/04/13 11:19:22;;;;;;;7.22;5.63;;;;;;;18.28;32.78;99335.44;5068662;28;20099;-69
2022/04/13 11:22:12;;;;;;;10.07;6.03;;;;;;;18.11;32.77;99298.50;5086154;28;20096;-68
2022/04/13 11:24:56;;;;;;;7.93;5.70;;;;;;;18.35;32.35;99356.38;5086279;28;20040;-69
2022/04/13 11:27:48;;;;;;;;;;;;;;;18.22;32.34;99357.44;5086392;28;20090;-69
2022/04/13 11:30:21;;;;;;;16.60;6.90;;;;;;;18.12;33.04;99334.22;5085965;28;19938;-68
2022/04/13 11:32:55;;;;;;;11.65;5.78;;;;;;;18.37;33.21;99330.25;5068775;28;20040;-68
2022/04/13 11:35:27;;;;;;;13.60;6.00;;;;;;;18.51;32.82;99333.44;5085944;28;20047;-69
2022/04/13 11:38:05;;;;;;;14.57;8.35;;;;;;;18.39;32.65;99339.03;5085788;28;20041;-69
2022/04/13 11:41:07;;;;;;;8.00;5.43;;;;;;;18.51;32.38;99343.31;5086021;28;20036;-68
2022/04/13 11:43:40;;;;;;;8.70;5.80;;;;;;;18.64;32.84;99337.75;5085742;28;20250;-68
2022/04/13 11:46:34;;;;;;;8.32;4.78;;;;;;;18.54;32.15;99335.03;5085651;28;20037;-69
2022/04/13 11:49:11;;;;;;;8.70;5.13;;;;;;;18.50;32.19;99334.41;5064295;28;20315;-68
2022/04/13 11:51:43;;;;;;;10.32;6.15;;;;;;;18.51;32.29;99336.09;5086227;28;20090;-65
2022/04/13 11:54:15;;;;;;;8.20;5.50;;;;;;;18.38;32.59;99289.88;5085487;28;20041;-65
2022/04/13 11:56:52;;;;;;;8.63;5.72;;;;;;;18.47;32.04;99315.91;5068287;28;20044;-67